sensor_id;sensor_type;location;lat;lon;timestamp;P1;durP1;ratioP1;P2;durP2;ratioP2
28216;SDS011;15493;56.858;24.340;2022-11-23T15:25:54;26.33;;;9.30;;
28216;SDS011;15493;56.858;24.340;2022-11-23T15:28:24;15.07;;;7.43;;
28216;SDS011;15493;56.858;24.340;2022-11-23T15:30:52;20.95;;;7.57;;
28216;SDS011;15493;56.858;24.340;2022-11-23T15:33:23;15.38;;;7.63;;
28216;SDS011;15493;56.858;24.340;2022-11-23T15:35:51;18.15;;;8.93;;
28216;SDS011;15493;56.858;24.340;2022-11-23T15:38:19;8.30;;;4.22;;
28216;SDS011;15493;56.858;24.340;2022-11-23T15:40:49;11.45;;;5.78;;
28216;SDS011;15493;56.858;24.340;2022-11-23T15:43:17;14.40;;;6.78;;
28216;SDS011;15493;56.858;24.340;2022-11-23T15:48:18;37.10;;;13.27;;
28216;SDS011;15493;56.858;24.340;2022-11-23T15:50:51;24.67;;;10.02;;
28216;SDS011;15493;56.858;24.340;2022-11-23T15:53:20;20.35;;;7.53;;
28216;SDS011;15493;56.858;24.340;2022-11-23T15:55:47;19.83;;;6.38;;
28216;SDS011;15493;56.858;24.340;2022-11-23T15:58:16;15.48;;;6.70;;
28216;SDS011;15493;56.858;24.340;2022-11-23T16:00:54;11.95;;;5.82;;
28216;SDS011;15493;56.858;24.340;2022-11-23T16:06:08;13.57;;;6.05;;
28216;SDS011;15493;56.858;24.340;2022-11-23T16:08:35;11.15;;;5.88;;
28216;SDS011;15493;56.858;24.340;2022-11-23T16:11:03;8.10;;;5.15;;
28216;SDS011;15493;56.858;24.340;2022-11-23T16:13:37;14.80;;;6.95;;
28216;SDS011;15493;56.858;24.340;2022-11-23T16:16:07;13.73;;;7.32;;
28216;SDS011;15493;56.858;24.340;2022-11-23T16:18:34;15.45;;;7.75;;
28216;SDS011;15493;56.858;24.340;2022-11-23T16:21:02;31.45;;;12.50;;
28216;SDS011;15493;56.858;24.340;2022-11-23T16:23:43;28.75;;;10.32;;
28216;SDS011;15493;56.858;24.340;2022-11-23T16:26:11;22.33;;;9.15;;
28216;SDS011;15493;56.858;24.340;2022-11-23T16:28:39;17.80;;;9.02;;
28216;SDS011;15493;56.858;24.340;2022-11-23T16:33:59;21.15;;;9.88;;
28216;SDS011;15493;56.858;24.340;2022-11-23T16:36:26;23.25;;;9.77;;
28216;SDS011;15493;56.858;24.340;2022-11-23T16:38:54;23.48;;;11.23;;
28216;SDS011;15493;56.858;24.340;2022-11-23T16:41:27;26.75;;;12.95;;
28216;SDS011;15493;56.858;24.340;2022-11-23T16:43:54;30.00;;;11.95;;
28216;SDS011;15493;56.858;24.340;2022-11-23T16:46:21;33.95;;;15.13;;
28216;SDS011;15493;56.858;24.340;2022-11-23T16:48:48;31.33;;;13.02;;
28216;SDS011;15493;56.858;24.340;2022-11-23T16:51:19;20.52;;;10.30;;
28216;SDS011;15493;56.858;24.340;2022-11-23T16:53:46;22.35;;;10.10;;
28216;SDS011;15493;56.858;24.340;2022-11-23T16:56:33;27.02;;;11.32;;
28216;SDS011;15493;56.858;24.340;2022-11-23T16:59:00;18.30;;;9.10;;
28216;SDS011;15493;56.858;24.340;2022-11-23T17:01:27;23.45;;;9.18;;
28216;SDS011;15493;56.858;24.340;2022-11-23T17:03:56;17.15;;;8.45;;
28216;SDS011;15493;56.858;24.340;2022-11-23T17:06:24;22.25;;;10.18;;
28216;SDS011;15493;56.858;24.340;2022-11-23T17:08:51;25.40;;;10.68;;
28216;SDS011;15493;56.858;24.340;2022-11-23T17:11:31;34.20;;;12.65;;
28216;SDS011;15493;56.858;24.340;2022-11-23T17:13:58;27.35;;;11.68;;
28216;SDS011;15493;56.858;24.340;2022-11-23T17:16:25;23.50;;;9.95;;
28216;SDS011;15493;56.858;24.340;2022-11-23T17:18:52;22.98;;;8.13;;
28216;SDS011;15493;56.858;24.340;2022-11-23T17:21:20;23.77;;;10.63;;
28216;SDS011;15493;56.858;24.340;2022-11-23T17:23:47;18.23;;;8.60;;
28216;SDS011;15493;56.858;24.340;2022-11-23T17:26:27;19.80;;;8.05;;
28216;SDS011;15493;56.858;24.340;2022-11-23T17:28:55;19.77;;;8.23;;
28216;SDS011;15493;56.858;24.340;2022-11-23T17:31:22;18.48;;;7.85;;
28216;SDS011;15493;56.858;24.340;2022-11-23T17:33:50;15.27;;;8.35;;
28216;SDS011;15493;56.858;24.340;2022-11-23T17:36:17;21.80;;;8.98;;
28216;SDS011;15493;56.858;24.340;2022-11-23T17:38:44;26.08;;;10.10;;
28216;SDS011;15493;56.858;24.340;2022-11-23T17:41:14;20.40;;;10.00;;
28216;SDS011;15493;56.858;24.340;2022-11-23T17:43:42;18.17;;;9.05;;
28216;SDS011;15493;56.858;24.340;2022-11-23T17:46:13;19.23;;;9.80;;
28216;SDS011;15493;56.858;24.340;2022-11-23T17:48:42;24.65;;;9.23;;
28216;SDS011;15493;56.858;24.340;2022-11-23T17:51:09;26.90;;;9.70;;
28216;SDS011;15493;56.858;24.340;2022-11-23T17:53:38;27.80;;;9.77;;
28216;SDS011;15493;56.858;24.340;2022-11-23T17:56:05;26.27;;;9.90;;
28216;SDS011;15493;56.858;24.340;2022-11-23T17:58:32;17.23;;;8.70;;
28216;SDS011;15493;56.858;24.340;2022-11-23T18:01:00;25.38;;;10.43;;
28216;SDS011;15493;56.858;24.340;2022-11-23T18:03:27;20.95;;;8.75;;
28216;SDS011;15493;56.858;24.340;2022-11-23T18:05:54;21.33;;;8.93;;
28216;SDS011;15493;56.858;24.340;2022-11-23T18:08:21;17.30;;;8.18;;
28216;SDS011;15493;56.858;24.340;2022-11-23T18:10:49;20.70;;;8.93;;
28216;SDS011;15493;56.858;24.340;2022-11-23T18:13:22;15.60;;;8.30;;
28216;SDS011;15493;56.858;24.340;2022-11-23T18:15:50;13.27;;;7.78;;
28216;SDS011;15493;56.858;24.340;2022-11-23T18:18:18;17.77;;;7.57;;
28216;SDS011;15493;56.858;24.340;2022-11-23T18:20:45;18.63;;;7.60;;
28216;SDS011;15493;56.858;24.340;2022-11-23T18:23:13;22.58;;;10.02;;
28216;SDS011;15493;56.858;24.340;2022-11-23T18:25:40;19.27;;;9.93;;
28216;SDS011;15493;56.858;24.340;2022-11-23T18:28:07;14.57;;;7.25;;
28216;SDS011;15493;56.858;24.340;2022-11-23T18:30:34;15.48;;;8.13;;
28216;SDS011;15493;56.858;24.340;2022-11-23T18:33:01;16.75;;;7.43;;
28216;SDS011;15493;56.858;24.340;2022-11-23T18:35:29;20.00;;;8.50;;
28216;SDS011;15493;56.858;24.340;2022-11-23T18:37:56;24.73;;;9.60;;
28216;SDS011;15493;56.858;24.340;2022-11-23T18:40:23;29.77;;;11.45;;
28216;SDS011;15493;56.858;24.340;2022-11-23T18:42:50;21.80;;;10.55;;
28216;SDS011;15493;56.858;24.340;2022-11-23T18:45:18;23.17;;;10.82;;
28216;SDS011;15493;56.858;24.340;2022-11-23T18:47:45;23.08;;;9.88;;
28216;SDS011;15493;56.858;24.340;2022-11-23T18:50:12;26.75;;;10.15;;
28216;SDS011;15493;56.858;24.340;2022-11-23T18:52:40;25.00;;;12.50;;
28216;SDS011;15493;56.858;24.340;2022-11-23T18:55:07;31.25;;;13.90;;
28216;SDS011;15493;56.858;24.340;2022-11-23T18:57:34;34.13;;;13.15;;
28216;SDS011;15493;56.858;24.340;2022-11-23T19:00:02;34.95;;;12.73;;
28216;SDS011;15493;56.858;24.340;2022-11-23T19:02:31;32.88;;;10.43;;
28216;SDS011;15493;56.858;24.340;2022-11-23T19:04:58;34.00;;;11.23;;
28216;SDS011;15493;56.858;24.340;2022-11-23T19:07:25;20.65;;;10.55;;
28216;SDS011;15493;56.858;24.340;2022-11-23T19:09:53;31.80;;;13.20;;
28216;SDS011;15493;56.858;24.340;2022-11-23T19:12:20;26.15;;;11.45;;
28216;SDS011;15493;56.858;24.340;2022-11-23T19:14:47;26.42;;;11.65;;
28216;SDS011;15493;56.858;24.340;2022-11-23T19:17:15;27.48;;;8.93;;
28216;SDS011;15493;56.858;24.340;2022-11-23T19:19:42;21.60;;;10.13;;
28216;SDS011;15493;56.858;24.340;2022-11-23T19:22:09;23.63;;;11.18;;
28216;SDS011;15493;56.858;24.340;2022-11-23T19:24:36;20.80;;;9.02;;
28216;SDS011;15493;56.858;24.340;2022-11-23T19:27:03;15.35;;;7.05;;
28216;SDS011;15493;56.858;24.340;2022-11-23T19:29:31;16.63;;;7.18;;
28216;SDS011;15493;56.858;24.340;2022-11-23T19:31:58;19.02;;;8.23;;
28216;SDS011;15493;56.858;24.340;2022-11-23T19:34:25;23.70;;;9.02;;
28216;SDS011;15493;56.858;24.340;2022-11-23T19:36:52;14.43;;;6.35;;
28216;SDS011;15493;56.858;24.340;2022-11-23T19:39:20;13.55;;;6.97;;
28216;SDS011;15493;56.858;24.340;2022-11-23T19:41:47;10.30;;;6.15;;
28216;SDS011;15493;56.858;24.340;2022-11-23T19:44:14;11.80;;;5.13;;
28216;SDS011;15493;56.858;24.340;2022-11-23T19:46:41;12.50;;;6.38;;
28216;SDS011;15493;56.858;24.340;2022-11-23T19:49:09;14.60;;;6.60;;
28216;SDS011;15493;56.858;24.340;2022-11-23T19:51:36;9.82;;;4.35;;
28216;SDS011;15493;56.858;24.340;2022-11-23T19:54:03;13.60;;;5.85;;
28216;SDS011;15493;56.858;24.340;2022-11-23T19:56:31;9.57;;;4.88;;
28216;SDS011;15493;56.858;24.340;2022-11-23T19:58:59;9.52;;;5.03;;
28216;SDS011;15493;56.858;24.340;2022-11-23T20:01:27;7.30;;;4.70;;
28216;SDS011;15493;56.858;24.340;2022-11-23T20:03:58;9.07;;;5.68;;
28216;SDS011;15493;56.858;24.340;2022-11-23T20:06:34;12.88;;;5.60;;
28216;SDS011;15493;56.858;24.340;2022-11-23T20:09:03;10.65;;;4.93;;
28216;SDS011;15493;56.858;24.340;2022-11-23T20:11:31;11.00;;;4.90;;
28216;SDS011;15493;56.858;24.340;2022-11-23T20:13:59;12.73;;;5.78;;
28216;SDS011;15493;56.858;24.340;2022-11-23T20:16:27;9.07;;;5.38;;
28216;SDS011;15493;56.858;24.340;2022-11-23T20:18:58;9.82;;;5.00;;
28216;SDS011;15493;56.858;24.340;2022-11-23T20:21:26;11.60;;;6.03;;
28216;SDS011;15493;56.858;24.340;2022-11-23T20:23:54;11.55;;;5.63;;
28216;SDS011;15493;56.858;24.340;2022-11-23T20:26:29;11.85;;;4.82;;
28216;SDS011;15493;56.858;24.340;2022-11-23T20:28:57;13.98;;;5.50;;
28216;SDS011;15493;56.858;24.340;2022-11-23T20:31:25;8.23;;;5.30;;
28216;SDS011;15493;56.858;24.340;2022-11-23T20:33:52;10.25;;;4.93;;
28216;SDS011;15493;56.858;24.340;2022-11-23T20:36:21;10.18;;;5.57;;
28216;SDS011;15493;56.858;24.340;2022-11-23T20:38:49;7.20;;;4.53;;
28216;SDS011;15493;56.858;24.340;2022-11-23T20:41:17;9.27;;;4.53;;
28216;SDS011;15493;56.858;24.340;2022-11-23T20:43:46;9.90;;;5.65;;
28216;SDS011;15493;56.858;24.340;2022-11-23T20:46:14;9.15;;;5.05;;
28216;SDS011;15493;56.858;24.340;2022-11-23T20:49:01;10.13;;;5.28;;
28216;SDS011;15493;56.858;24.340;2022-11-23T20:51:28;10.80;;;4.95;;
28216;SDS011;15493;56.858;24.340;2022-11-23T20:53:56;7.70;;;5.22;;
28216;SDS011;15493;56.858;24.340;2022-11-23T20:56:23;11.13;;;5.22;;
28216;SDS011;15493;56.858;24.340;2022-11-23T20:58:53;8.10;;;5.07;;
28216;SDS011;15493;56.858;24.340;2022-11-23T21:01:20;10.75;;;4.95;;
28216;SDS011;15493;56.858;24.340;2022-11-23T21:03:49;10.88;;;5.25;;
28216;SDS011;15493;56.858;24.340;2022-11-23T21:06:17;9.57;;;5.28;;
28216;SDS011;15493;56.858;24.340;2022-11-23T21:08:44;10.68;;;5.75;;
28216;SDS011;15493;56.858;24.340;2022-11-23T21:11:13;13.55;;;5.82;;
28216;SDS011;15493;56.858;24.340;2022-11-23T21:13:59;9.80;;;4.93;;
28216;SDS011;15493;56.858;24.340;2022-11-23T21:16:44;17.58;;;6.50;;
28216;SDS011;15493;56.858;24.340;2022-11-23T21:19:18;10.13;;;4.88;;
28216;SDS011;15493;56.858;24.340;2022-11-23T21:21:46;8.70;;;5.47;;
28216;SDS011;15493;56.858;24.340;2022-11-23T21:24:14;11.77;;;5.43;;
28216;SDS011;15493;56.858;24.340;2022-11-23T21:26:41;10.85;;;5.28;;
28216;SDS011;15493;56.858;24.340;2022-11-23T21:29:08;11.93;;;6.22;;
28216;SDS011;15493;56.858;24.340;2022-11-23T21:31:37;15.60;;;7.10;;
28216;SDS011;15493;56.858;24.340;2022-11-23T21:34:04;13.27;;;7.22;;
28216;SDS011;15493;56.858;24.340;2022-11-23T21:36:36;15.40;;;6.40;;
28216;SDS011;15493;56.858;24.340;2022-11-23T21:39:05;16.38;;;7.65;;
28216;SDS011;15493;56.858;24.340;2022-11-23T21:41:33;13.10;;;6.40;;
28216;SDS011;15493;56.858;24.340;2022-11-23T21:44:00;14.70;;;6.88;;
28216;SDS011;15493;56.858;24.340;2022-11-23T21:46:28;11.75;;;6.30;;
28216;SDS011;15493;56.858;24.340;2022-11-23T21:48:55;13.25;;;6.05;;
28216;SDS011;15493;56.858;24.340;2022-11-23T21:51:24;12.18;;;6.20;;
28216;SDS011;15493;56.858;24.340;2022-11-23T21:53:52;13.52;;;6.43;;
28216;SDS011;15493;56.858;24.340;2022-11-23T21:56:19;14.60;;;6.97;;
28216;SDS011;15493;56.858;24.340;2022-11-23T21:58:47;14.40;;;5.68;;
28216;SDS011;15493;56.858;24.340;2022-11-23T22:01:18;11.88;;;5.80;;
28216;SDS011;15493;56.858;24.340;2022-11-23T22:03:50;11.02;;;5.80;;
28216;SDS011;15493;56.858;24.340;2022-11-23T22:06:17;20.77;;;7.90;;
28216;SDS011;15493;56.858;24.340;2022-11-23T22:08:50;13.65;;;6.82;;
28216;SDS011;15493;56.858;24.340;2022-11-23T22:11:19;10.77;;;6.20;;
28216;SDS011;15493;56.858;24.340;2022-11-23T22:13:56;12.18;;;6.28;;
28216;SDS011;15493;56.858;24.340;2022-11-23T22:16:25;8.35;;;5.25;;
28216;SDS011;15493;56.858;24.340;2022-11-23T22:18:53;11.98;;;6.28;;
28216;SDS011;15493;56.858;24.340;2022-11-23T22:21:22;17.33;;;6.72;;
28216;SDS011;15493;56.858;24.340;2022-11-23T22:23:50;14.27;;;6.47;;
28216;SDS011;15493;56.858;24.340;2022-11-23T22:26:17;10.48;;;5.30;;
28216;SDS011;15493;56.858;24.340;2022-11-23T22:28:45;8.63;;;5.55;;
28216;SDS011;15493;56.858;24.340;2022-11-23T22:31:14;10.20;;;5.85;;
28216;SDS011;15493;56.858;24.340;2022-11-23T22:33:42;12.82;;;6.63;;
28216;SDS011;15493;56.858;24.340;2022-11-23T22:36:19;13.50;;;5.93;;
28216;SDS011;15493;56.858;24.340;2022-11-23T22:38:47;7.95;;;4.97;;
28216;SDS011;15493;56.858;24.340;2022-11-23T22:41:15;9.15;;;5.05;;
28216;SDS011;15493;56.858;24.340;2022-11-23T22:43:43;12.05;;;5.07;;
28216;SDS011;15493;56.858;24.340;2022-11-23T22:46:11;15.18;;;6.05;;
28216;SDS011;15493;56.858;24.340;2022-11-23T22:48:40;11.63;;;6.03;;
28216;SDS011;15493;56.858;24.340;2022-11-23T22:51:08;13.52;;;5.05;;
28216;SDS011;15493;56.858;24.340;2022-11-23T22:53:37;12.82;;;5.82;;
28216;SDS011;15493;56.858;24.340;2022-11-23T22:56:13;16.67;;;6.03;;
28216;SDS011;15493;56.858;24.340;2022-11-23T22:58:41;9.82;;;5.43;;
28216;SDS011;15493;56.858;24.340;2022-11-23T23:01:15;12.07;;;6.05;;
28216;SDS011;15493;56.858;24.340;2022-11-23T23:03:42;10.75;;;5.60;;
28216;SDS011;15493;56.858;24.340;2022-11-23T23:06:14;9.80;;;5.68;;
28216;SDS011;15493;56.858;24.340;2022-11-23T23:08:42;14.75;;;5.40;;
28216;SDS011;15493;56.858;24.340;2022-11-23T23:11:09;10.30;;;5.13;;
28216;SDS011;15493;56.858;24.340;2022-11-23T23:13:36;12.30;;;5.32;;
28216;SDS011;15493;56.858;24.340;2022-11-23T23:16:08;10.88;;;5.63;;
28216;SDS011;15493;56.858;24.340;2022-11-23T23:18:36;16.13;;;5.85;;
28216;SDS011;15493;56.858;24.340;2022-11-23T23:21:04;13.73;;;5.50;;
28216;SDS011;15493;56.858;24.340;2022-11-23T23:23:46;17.92;;;6.13;;
28216;SDS011;15493;56.858;24.340;2022-11-23T23:26:14;8.95;;;5.70;;
28216;SDS011;15493;56.858;24.340;2022-11-23T23:28:42;10.95;;;6.00;;
28216;SDS011;15493;56.858;24.340;2022-11-23T23:31:10;13.52;;;6.25;;
28216;SDS011;15493;56.858;24.340;2022-11-23T23:33:39;10.85;;;5.25;;
28216;SDS011;15493;56.858;24.340;2022-11-23T23:36:10;9.40;;;4.90;;
28216;SDS011;15493;56.858;24.340;2022-11-23T23:38:38;10.32;;;5.13;;
28216;SDS011;15493;56.858;24.340;2022-11-23T23:41:06;14.75;;;6.35;;
28216;SDS011;15493;56.858;24.340;2022-11-23T23:43:34;9.90;;;5.70;;
28216;SDS011;15493;56.858;24.340;2022-11-23T23:46:02;8.95;;;5.50;;
28216;SDS011;15493;56.858;24.340;2022-11-23T23:48:31;11.48;;;6.05;;
28216;SDS011;15493;56.858;24.340;2022-11-23T23:53:55;11.73;;;5.78;;
28216;SDS011;15493;56.858;24.340;2022-11-23T23:56:24;10.55;;;5.15;;
28216;SDS011;15493;56.858;24.340;2022-11-23T23:58:55;11.95;;;5.65;;
